Draffin, Kentucky
Current Conditions -  °F | °C
As of 4:15 AM on Sunday 21 Dec 2014 (Local Time) from KPBX Reporting Station
Clear Clear  
Wind Chill: -5°   Ceiling: Unl
Heat Index: -2°   Visibility: 10mi
Dew Point: -4°   Wind: 5mph
Humidity: 88%   Direction: 10°N
Pressure: 30.24"   Gusts: NA
Location:  37.3089°N, 82.3418°W
Report Text: KPBX 210915Z AUTO 01004KT 10SM CLR M02/M04 A3024 RMK AO2 T10211038
Loading
Personal Weather Stations






























Interactive Weather Map New forecast layout! Learn more

10-Day Weather Forecast

Advertisements
Track Severe Weather on mobile